Time;durP1;ratioP1;P1;durP2;ratioP2;P2;SDS_P1;SDS_P2;PMS_P1;PMS_P2;Temp;Humidity;BMP_temperature;BMP_pressure;BME280_temperature;BME280_humidity;BME280_pressure;Samples;Min_cycle;Max_cycle;Signal;HPM_P1;HPM_P2
2023/05/06 00:02:08;;;;;;;46.85;35.85;;;12.50;99.90;;;;;;5049627;28;20429;-70
2023/05/06 00:04:35;;;;;;;50.47;36.17;;;12.50;99.90;;;;;;5049154;28;20846;-70
2023/05/06 00:07:02;;;;;;;48.17;35.28;;;12.50;99.90;;;;;;5050638;28;20436;-71
2023/05/06 00:09:29;;;;;;;45.22;34.40;;;12.50;99.90;;;;;;5046820;28;20421;-72
2023/05/06 00:11:56;;;;;;;45.13;35.08;;;12.50;99.90;;;;;;5044574;28;20437;-71
2023/05/06 00:14:24;;;;;;;46.58;35.10;;;12.50;99.90;;;;;;5049524;28;20436;-70
2023/05/06 00:16:51;;;;;;;41.80;33.67;;;12.50;99.90;;;;;;5041151;28;20439;-70
2023/05/06 00:19:18;;;;;;;45.05;34.80;;;12.50;99.90;;;;;;5045236;28;20451;-70
2023/05/06 00:21:44;;;;;;;43.83;34.65;;;12.50;99.90;;;;;;5040881;28;20829;-70
2023/05/06 00:24:11;;;;;;;44.78;34.15;;;12.50;99.90;;;;;;5039644;28;20741;-71
2023/05/06 00:26:38;;;;;;;46.72;34.78;;;12.50;99.90;;;;;;5041053;28;20452;-71
2023/05/06 00:29:04;;;;;;;44.47;34.63;;;12.50;99.90;;;;;;5048263;28;20433;-71
2023/05/06 00:31:32;;;;;;;42.08;33.30;;;12.50;99.90;;;;;;5038858;28;20436;-71
2023/05/06 00:33:59;;;;;;;43.15;34.20;;;12.40;99.90;;;;;;5047683;28;20777;-71
2023/05/06 00:36:26;;;;;;;45.13;35.05;;;12.40;99.90;;;;;;5047049;28;20429;-70
2023/05/06 00:38:53;;;;;;;43.25;33.83;;;12.40;99.90;;;;;;5051780;28;20421;-70
2023/05/06 00:41:20;;;;;;;44.30;33.70;;;12.30;99.90;;;;;;5047349;28;20461;-71
2023/05/06 00:43:47;;;;;;;44.55;33.75;;;12.30;99.90;;;;;;5035928;28;20703;-71
2023/05/06 00:46:16;;;;;;;42.03;33.65;;;12.30;99.90;;;;;;5046314;28;20417;-71
2023/05/06 00:48:44;;;;;;;44.13;33.75;;;12.30;99.90;;;;;;5048383;28;20433;-71
2023/05/06 00:51:12;;;;;;;39.45;31.42;;;12.30;99.90;;;;;;5049934;28;20417;-71
2023/05/06 00:53:39;;;;;;;42.03;32.80;;;12.30;99.90;;;;;;5050176;28;20429;-71
2023/05/06 00:56:07;;;;;;;44.47;32.88;;;12.20;99.90;;;;;;5042067;28;20875;-71
2023/05/06 00:58:34;;;;;;;43.58;33.80;;;12.10;99.90;;;;;;5049133;28;20804;-71
2023/05/06 01:01:01;;;;;;;47.67;34.05;;;12.10;99.90;;;;;;5045918;28;20911;-71
2023/05/06 01:03:28;;;;;;;43.50;33.00;;;12.10;99.90;;;;;;5043280;28;20437;-71
2023/05/06 01:06:11;;;;;;;45.33;33.92;;;12.10;99.90;;;;;;5041873;28;20942;-71
2023/05/06 01:08:46;;;;;;;44.40;33.70;;;12.10;99.90;;;;;;5049453;28;20427;-71
2023/05/06 01:11:17;;;;;;;46.08;33.92;;;12.10;99.90;;;;;;5048902;28;20429;-71
2023/05/06 01:13:49;;;;;;;44.33;33.72;;;12.10;99.90;;;;;;5042421;28;21011;-70
2023/05/06 01:16:20;;;;;;;46.05;36.08;;;12.10;99.90;;;;;;5041011;28;20417;-72
2023/05/06 01:18:49;;;;;;;48.67;35.33;;;12.10;99.90;;;;;;5045314;28;20442;-73
2023/05/06 01:21:20;;;;;;;45.83;34.75;;;12.00;99.90;;;;;;5038938;28;20445;-70
2023/05/06 01:23:56;;;;;;;48.05;35.05;;;12.10;99.90;;;;;;5046652;28;20429;-71
2023/05/06 01:26:23;;;;;;;47.45;34.35;;;12.00;99.90;;;;;;5037704;28;20938;-70
2023/05/06 01:28:50;;;;;;;45.95;34.72;;;12.00;99.90;;;;;;5042265;28;21389;-70
2023/05/06 01:31:24;;;;;;;45.90;34.80;;;12.00;99.90;;;;;;5047637;28;20418;-72
2023/05/06 01:33:59;;;;;;;44.63;34.03;;;12.00;99.90;;;;;;5045331;28;20495;-70
2023/05/06 01:36:31;;;;;;;49.17;36.22;;;12.00;99.90;;;;;;5046673;28;20788;-71
2023/05/06 01:39:08;;;;;;;48.67;35.38;;;12.00;99.90;;;;;;5052908;28;20491;-72
2023/05/06 01:41:38;;;;;;;47.85;36.35;;;12.00;99.90;;;;;;5049498;28;20420;-71
2023/05/06 01:44:06;;;;;;;46.08;35.40;;;12.00;99.90;;;;;;5047537;28;20801;-71
2023/05/06 01:46:34;;;;;;;43.20;35.65;;;12.00;99.90;;;;;;5054446;28;20439;-72
2023/05/06 01:49:04;;;;;;;46.78;35.90;;;12.00;99.90;;;;;;5057516;28;20480;-71
2023/05/06 01:51:32;;;;;;;45.88;35.30;;;12.00;99.90;;;;;;5051552;28;20620;-71
2023/05/06 01:54:01;;;;;;;43.17;32.75;;;11.90;99.90;;;;;;5039605;28;20421;-71
2023/05/06 01:56:29;;;;;;;45.35;34.05;;;11.90;99.90;;;;;;5042858;28;20441;-71
2023/05/06 01:58:55;;;;;;;44.55;35.35;;;11.90;99.90;;;;;;5038043;28;20429;-71
2023/05/06 02:01:22;;;;;;;50.25;36.70;;;11.90;99.90;;;;;;5045983;28;20452;-71
2023/05/06 02:03:49;;;;;;;48.60;36.30;;;11.90;99.90;;;;;;5049352;28;20417;-71
2023/05/06 02:06:16;;;;;;;46.70;36.47;;;11.90;99.90;;;;;;5035486;28;20417;-71
2023/05/06 02:08:42;;;;;;;46.25;35.78;;;11.90;99.90;;;;;;5048768;28;20417;-71
2023/05/06 02:11:10;;;;;;;47.72;36.35;;;11.90;99.90;;;;;;5047201;28;20490;-71
2023/05/06 02:13:37;;;;;;;45.83;34.90;;;11.90;99.90;;;;;;5048011;28;20428;-70
2023/05/06 02:16:04;;;;;;;44.63;34.90;;;11.80;99.90;;;;;;5040307;28;20429;-70
2023/05/06 02:18:31;;;;;;;45.25;34.25;;;11.80;99.90;;;;;;5047482;28;20413;-72
2023/05/06 02:20:57;;;;;;;42.13;33.63;;;11.80;99.90;;;;;;5047510;28;20437;-70
2023/05/06 02:23:24;;;;;;;42.53;33.63;;;11.80;99.90;;;;;;5048090;28;20428;-70
2023/05/06 02:25:51;;;;;;;43.05;32.55;;;11.70;99.90;;;;;;5047794;28;20876;-71
2023/05/06 02:28:19;;;;;;;39.70;31.70;;;11.70;99.90;;;;;;5048412;28;20498;-71
2023/05/06 02:30:46;;;;;;;41.87;32.20;;;11.70;99.90;;;;;;5046059;28;20437;-70
2023/05/06 02:33:12;;;;;;;39.47;32.10;;;11.70;99.90;;;;;;5048425;28;20407;-71
2023/05/06 02:35:39;;;;;;;43.60;34.75;;;11.70;99.90;;;;;;5037181;28;20433;-70
2023/05/06 02:38:06;;;;;;;41.70;32.35;;;11.70;99.90;;;;;;5046440;28;20833;-70
2023/05/06 02:40:33;;;;;;;39.97;33.08;;;11.70;99.90;;;;;;5032684;28;20425;-71
2023/05/06 02:43:00;;;;;;;41.08;33.60;;;11.70;99.90;;;;;;5045696;28;20939;-71
2023/05/06 02:45:28;;;;;;;41.30;32.35;;;11.80;99.90;;;;;;5046988;28;20465;-70
2023/05/06 02:47:55;;;;;;;41.08;32.85;;;11.80;99.90;;;;;;5040170;28;20707;-72
2023/05/06 02:50:21;;;;;;;37.22;31.73;;;11.80;99.90;;;;;;5042988;28;20444;-71
2023/05/06 02:52:48;;;;;;;38.53;31.83;;;11.80;99.90;;;;;;5034938;28;20429;-71
2023/05/06 02:55:15;;;;;;;39.25;32.42;;;11.80;99.90;;;;;;5042480;28;20781;-70
2023/05/06 02:57:41;;;;;;;46.60;32.45;;;11.80;99.90;;;;;;5034572;28;20413;-72
2023/05/06 03:00:10;;;;;;;41.85;31.50;;;11.80;99.90;;;;;;5045686;28;20448;-70
2023/05/06 03:02:38;;;;;;;44.90;32.15;;;11.80;99.90;;;;;;5047570;28;20449;-70
2023/05/06 03:05:06;;;;;;;53.20;32.43;;;11.80;99.90;;;;;;5044109;28;20436;-72
2023/05/06 03:07:34;;;;;;;46.05;31.63;;;11.80;99.90;;;;;;5047352;28;20436;-71
2023/05/06 03:10:01;;;;;;;49.03;32.67;;;11.80;99.90;;;;;;5047995;28;20413;-70
2023/05/06 03:12:28;;;;;;;46.30;31.70;;;11.80;99.90;;;;;;5047354;28;20421;-70
2023/05/06 03:14:54;;;;;;;40.88;33.20;;;11.80;99.90;;;;;;5042723;28;20950;-70
2023/05/06 03:17:21;;;;;;;38.42;31.42;;;11.80;99.90;;;;;;5040383;28;20438;-70
2023/05/06 03:19:50;;;;;;;42.08;33.40;;;11.80;99.90;;;;;;5042138;28;20424;-71
2023/05/06 03:22:17;;;;;;;41.40;32.75;;;11.80;99.90;;;;;;5036471;28;20493;-70
2023/05/06 03:24:44;;;;;;;37.30;31.42;;;11.80;99.90;;;;;;5047065;28;20934;-70
2023/05/06 03:27:11;;;;;;;36.63;31.17;;;11.80;99.90;;;;;;5033006;28;20416;-71
2023/05/06 03:29:37;;;;;;;42.38;32.63;;;11.80;99.90;;;;;;5047839;28;20440;-71
2023/05/06 03:32:05;;;;;;;40.63;30.83;;;11.70;99.90;;;;;;5043647;28;20423;-71
2023/05/06 03:34:32;;;;;;;35.08;30.35;;;11.70;99.90;;;;;;5036191;28;20415;-71
2023/05/06 03:37:00;;;;;;;36.17;31.20;;;11.70;99.90;;;;;;5044269;28;20538;-71
2023/05/06 03:39:26;;;;;;;33.85;29.23;;;11.70;99.90;;;;;;5051225;28;20908;-71
2023/05/06 03:41:53;;;;;;;35.65;29.80;;;11.70;99.90;;;;;;5052440;28;20433;-70
2023/05/06 03:44:20;;;;;;;32.90;28.88;;;11.70;99.90;;;;;;5061132;28;20420;-71
2023/05/06 03:46:47;;;;;;;33.42;28.60;;;11.60;99.90;;;;;;5066857;28;20435;-70
2023/05/06 03:49:13;;;;;;;33.33;28.25;;;11.60;99.90;;;;;;5065996;28;20414;-70
2023/05/06 03:51:40;;;;;;;32.20;28.70;;;11.60;99.90;;;;;;5050018;28;20418;-70
2023/05/06 03:54:08;;;;;;;29.77;25.95;;;11.50;99.90;;;;;;5051246;28;20422;-70
2023/05/06 03:56:35;;;;;;;30.60;27.27;;;11.50;99.90;;;;;;5043245;28;20434;-70
2023/05/06 03:59:02;;;;;;;31.95;28.50;;;11.50;99.90;;;;;;5042187;28;20431;-70
2023/05/06 04:01:29;;;;;;;31.05;27.65;;;11.50;99.90;;;;;;5049349;28;20421;-70
2023/05/06 04:03:56;;;;;;;29.05;26.05;;;11.40;99.90;;;;;;5036999;28;20494;-70
2023/05/06 04:06:22;;;;;;;30.63;27.33;;;11.40;99.90;;;;;;5046368;28;20921;-71
2023/05/06 04:08:49;;;;;;;29.63;26.52;;;11.40;99.90;;;;;;5040167;28;20433;-71
2023/05/06 04:11:17;;;;;;;28.13;25.13;;;11.40;99.90;;;;;;5047360;28;20533;-71
2023/05/06 04:13:44;;;;;;;28.58;25.58;;;11.40;99.90;;;;;;5049285;28;20429;-71
2023/05/06 04:16:11;;;;;;;28.23;25.15;;;11.40;99.90;;;;;;5045002;28;20440;-71
2023/05/06 04:18:38;;;;;;;28.27;24.60;;;11.40;99.90;;;;;;5037884;28;20437;-71
2023/05/06 04:21:05;;;;;;;27.65;24.70;;;11.40;99.90;;;;;;5045080;28;20932;-71
2023/05/06 04:23:32;;;;;;;27.90;25.05;;;11.40;99.90;;;;;;5039047;28;20487;-70
2023/05/06 04:25:59;;;;;;;28.95;25.98;;;11.40;99.90;;;;;;5042693;28;20422;-71
2023/05/06 04:28:27;;;;;;;27.73;24.52;;;11.40;99.90;;;;;;5044743;28;20462;-70
2023/05/06 04:30:54;;;;;;;26.75;23.30;;;11.30;99.90;;;;;;5048679;28;20808;-71
2023/05/06 04:33:21;;;;;;;27.30;24.60;;;11.30;99.90;;;;;;5045563;28;20424;-71
2023/05/06 04:35:52;;;;;;;27.10;24.40;;;11.40;99.90;;;;;;5049673;28;20433;-71
2023/05/06 04:38:20;;;;;;;27.02;24.17;;;11.40;99.90;;;;;;5044166;28;20509;-72
2023/05/06 04:40:47;;;;;;;27.80;24.80;;;11.40;99.90;;;;;;5038441;28;20437;-71
2023/05/06 04:43:15;;;;;;;33.47;24.77;;;11.40;99.90;;;;;;5045154;28;20437;-71
2023/05/06 04:45:47;;;;;;;26.85;24.05;;;11.40;99.90;;;;;;5046188;28;20417;-70
2023/05/06 04:48:16;;;;;;;26.95;24.05;;;11.40;99.90;;;;;;5036448;28;20452;-71
2023/05/06 04:50:42;;;;;;;26.37;23.67;;;11.40;99.90;;;;;;5048228;28;20425;-71
2023/05/06 04:53:09;;;;;;;26.15;23.45;;;11.40;99.90;;;;;;5046055;28;20429;-72
2023/05/06 04:55:36;;;;;;;27.65;24.75;;;11.40;99.90;;;;;;5044250;28;20434;-71
2023/05/06 04:58:02;;;;;;;27.35;24.55;;;11.40;99.90;;;;;;5047983;28;20895;-70
2023/05/06 05:00:29;;;;;;;27.40;24.50;;;11.40;99.90;;;;;;5036816;28;20430;-71
2023/05/06 05:02:57;;;;;;;26.95;24.05;;;11.50;99.90;;;;;;5049569;28;20416;-71
2023/05/06 05:05:24;;;;;;;29.33;24.80;;;11.50;99.90;;;;;;5050032;28;20413;-71
2023/05/06 05:07:51;;;;;;;33.50;25.70;;;11.50;99.90;;;;;;5056831;22;20516;-72
2023/05/06 05:10:18;;;;;;;40.95;24.48;;;11.40;99.90;;;;;;5044489;28;20794;-72
2023/05/06 05:12:45;;;;;;;35.00;25.65;;;11.40;99.90;;;;;;5042002;28;20405;-72
2023/05/06 05:15:12;;;;;;;37.72;26.70;;;11.40;99.90;;;;;;5045609;28;20429;-72
2023/05/06 05:17:38;;;;;;;36.23;27.87;;;11.40;99.90;;;;;;5038191;28;20767;-72
2023/05/06 05:20:08;;;;;;;30.90;26.88;;;11.40;99.90;;;;;;5024985;28;20438;-72
2023/05/06 05:22:35;;;;;;;31.38;27.45;;;11.40;99.90;;;;;;5025346;28;20449;-72
2023/05/06 05:25:02;;;;;;;27.40;24.52;;;11.40;99.90;;;;;;5023930;28;20549;-72
2023/05/06 05:27:29;;;;;;;35.65;25.33;;;11.40;99.90;;;;;;5020742;28;20550;-72
2023/05/06 05:29:56;;;;;;;43.55;24.65;;;11.40;99.90;;;;;;5022354;28;20569;-72
2023/05/06 05:32:23;;;;;;;26.60;23.80;;;11.50;99.90;;;;;;5024194;28;20890;-72
2023/05/06 05:34:49;;;;;;;33.53;24.20;;;11.50;99.90;;;;;;5024769;28;20909;-71
2023/05/06 05:37:18;;;;;;;29.30;22.85;;;11.60;99.90;;;;;;5025906;28;20493;-71
2023/05/06 05:39:44;;;;;;;25.67;23.13;;;11.60;99.90;;;;;;5023041;28;20438;-71
2023/05/06 05:42:11;;;;;;;25.67;23.30;;;11.60;99.90;;;;;;5020622;28;20435;-70
2023/05/06 05:44:38;;;;;;;26.92;24.05;;;11.60;99.90;;;;;;5028041;28;20498;-71
2023/05/06 05:47:05;;;;;;;25.33;22.83;;;11.70;99.90;;;;;;5029439;28;20431;-71
2023/05/06 05:49:32;;;;;;;25.92;23.42;;;11.70;99.90;;;;;;5025368;28;20738;-70
2023/05/06 05:51:58;;;;;;;24.55;22.35;;;11.80;99.90;;;;;;5023937;28;20465;-71
2023/05/06 05:54:26;;;;;;;24.08;21.98;;;11.80;99.90;;;;;;5038020;28;20552;-71
2023/05/06 05:56:53;;;;;;;25.05;22.75;;;11.80;99.90;;;;;;5021517;28;20508;-71
2023/05/06 05:59:20;;;;;;;23.75;21.45;;;11.90;99.90;;;;;;5026964;28;20429;-71
2023/05/06 06:01:47;;;;;;;23.25;21.15;;;11.90;99.90;;;;;;5025542;28;20421;-71
2023/05/06 06:04:14;;;;;;;22.80;20.80;;;11.90;99.90;;;;;;5021300;28;20434;-73
2023/05/06 06:06:43;;;;;;;22.70;20.60;;;11.90;99.90;;;;;;5027677;28;20485;-72
2023/05/06 06:09:10;;;;;;;22.60;20.50;;;11.90;99.90;;;;;;5020610;28;20439;-71
2023/05/06 06:11:38;;;;;;;23.10;21.10;;;11.80;99.90;;;;;;5020758;28;20514;-71
2023/05/06 06:14:04;;;;;;;22.75;20.85;;;11.80;99.90;;;;;;5016727;28;20439;-71
2023/05/06 06:16:31;;;;;;;20.10;18.40;;;11.80;99.90;;;;;;5025325;28;20445;-71
2023/05/06 06:18:58;;;;;;;20.33;18.63;;;11.80;99.90;;;;;;5022362;28;20788;-71
2023/05/06 06:21:26;;;;;;;21.67;19.77;;;11.80;99.90;;;;;;5031852;28;20497;-71
2023/05/06 06:23:53;;;;;;;21.65;19.85;;;11.90;99.90;;;;;;5033882;28;20872;-71
2023/05/06 06:26:20;;;;;;;20.65;18.85;;;11.90;99.90;;;;;;5024388;28;20419;-71
2023/05/06 06:28:48;;;;;;;17.73;16.13;;;12.00;99.90;;;;;;5018736;28;20515;-71
2023/05/06 06:31:14;;;;;;;18.13;16.63;;;12.00;99.90;;;;;;5025387;28;20422;-71
2023/05/06 06:33:41;;;;;;;18.55;17.00;;;12.10;99.90;;;;;;5026804;28;20430;-71
2023/05/06 06:36:09;;;;;;;16.70;15.40;;;12.20;99.90;;;;;;5023322;28;20438;-71
2023/05/06 06:38:36;;;;;;;16.90;15.55;;;12.20;99.90;;;;;;5018594;28;20455;-72
2023/05/06 06:41:02;;;;;;;15.53;14.33;;;12.30;99.90;;;;;;5021570;28;20580;-74
2023/05/06 06:43:29;;;;;;;16.50;15.20;;;12.40;99.90;;;;;;5025017;28;20438;-74
2023/05/06 06:45:57;;;;;;;15.63;14.32;;;12.50;99.90;;;;;;5029929;28;20415;-75
2023/05/06 06:48:24;;;;;;;15.48;14.18;;;12.60;99.90;;;;;;5020617;28;20447;-74
2023/05/06 06:50:51;;;;;;;15.15;13.95;;;12.60;99.90;;;;;;5024112;28;21046;-74
2023/05/06 06:53:17;;;;;;;14.48;13.27;;;12.70;99.90;;;;;;5022437;28;20438;-75
2023/05/06 06:55:45;;;;;;;13.18;12.18;;;12.80;99.90;;;;;;5025078;28;20534;-74
2023/05/06 06:58:11;;;;;;;13.93;12.93;;;12.90;99.90;;;;;;5021939;28;20442;-72
2023/05/06 07:00:38;;;;;;;13.30;12.32;;;13.00;99.90;;;;;;5019622;28;20541;-73
2023/05/06 07:03:06;;;;;;;13.38;12.38;;;13.10;99.90;;;;;;5024743;28;20915;-73
2023/05/06 07:05:33;;;;;;;12.38;11.48;;;13.20;99.90;;;;;;5024641;28;20980;-73
2023/05/06 07:08:00;;;;;;;13.00;12.00;;;13.30;99.90;;;;;;5026813;28;20545;-73
2023/05/06 07:10:26;;;;;;;12.32;11.32;;;13.50;99.90;;;;;;5026834;28;20465;-73
2023/05/06 07:12:53;;;;;;;12.20;11.30;;;13.60;99.90;;;;;;5032731;28;20450;-75
2023/05/06 07:15:20;;;;;;;12.10;11.10;;;13.70;99.90;;;;;;5028592;28;20616;-73
2023/05/06 07:17:47;;;;;;;11.20;10.30;;;13.80;99.90;;;;;;5026283;28;20434;-75
2023/05/06 07:20:15;;;;;;;10.63;9.82;;;13.90;99.90;;;;;;5030165;28;20897;-76
2023/05/06 07:22:44;;;;;;;10.00;9.20;;;14.00;99.90;;;;;;5021974;28;20489;-73
2023/05/06 07:25:11;;;;;;;11.45;10.55;;;14.10;99.90;;;;;;5024381;28;20683;-73
2023/05/06 07:27:38;;;;;;;9.80;9.00;;;14.30;99.90;;;;;;5024698;28;20427;-74
2023/05/06 07:30:06;;;;;;;8.60;8.00;;;14.40;99.90;;;;;;5023940;28;20439;-76
2023/05/06 07:32:32;;;;;;;10.00;9.20;;;14.50;99.90;;;;;;5022701;28;20465;-74
2023/05/06 07:35:00;;;;;;;10.10;9.30;;;14.70;99.90;;;;;;5020483;28;20760;-73
2023/05/06 07:37:28;;;;;;;9.60;8.80;;;14.80;99.90;;;;;;5022035;28;20582;-73
2023/05/06 07:39:56;;;;;;;9.30;8.60;;;15.00;99.90;;;;;;5019759;28;20727;-73
2023/05/06 07:42:23;;;;;;;9.02;8.32;;;15.10;99.90;;;;;;5022301;28;20920;-73
2023/05/06 07:44:50;;;;;;;8.13;7.43;;;15.30;99.90;;;;;;5017201;28;20431;-73
2023/05/06 07:47:26;;;;;;;7.63;7.03;;;15.50;99.90;;;;;;5019981;28;20433;-73
2023/05/06 07:49:53;;;;;;;7.47;6.88;;;15.60;99.90;;;;;;5022294;28;20821;-73
2023/05/06 07:52:19;;;;;;;6.75;6.25;;;15.80;99.90;;;;;;5025739;28;20442;-74
2023/05/06 07:54:47;;;;;;;7.07;6.57;;;16.00;99.90;;;;;;5014946;28;20950;-73
2023/05/06 07:57:14;;;;;;;6.15;5.65;;;16.10;98.50;;;;;;5017075;28;20443;-73
2023/05/06 07:59:43;;;;;;;5.60;5.20;;;16.20;99.00;;;;;;5019255;28;20625;-73
2023/05/06 08:02:10;;;;;;;5.63;5.22;;;16.40;98.80;;;;;;5019538;28;20493;-70
2023/05/06 08:04:36;;;;;;;5.47;5.07;;;16.60;97.50;;;;;;5022898;28;20446;-72
2023/05/06 08:07:03;;;;;;;5.03;4.63;;;16.90;96.80;;;;;;5034369;28;20417;-69
2023/05/06 08:09:30;;;;;;;3.97;3.67;;;17.10;96.20;;;;;;5017057;28;20432;-70
2023/05/06 08:11:58;;;;;;;4.60;4.20;;;17.30;94.80;;;;;;5021994;28;20435;-69
2023/05/06 08:14:25;;;;;;;4.10;3.80;;;17.40;93.60;;;;;;5020653;28;20525;-70
2023/05/06 08:16:52;;;;;;;3.67;3.38;;;17.60;93.60;;;;;;5017333;28;20878;-68
2023/05/06 08:19:20;;;;;;;3.45;3.20;;;17.70;92.40;;;;;;5012267;28;20546;-69
2023/05/06 08:21:46;;;;;;;3.80;3.50;;;17.80;92.20;;;;;;5014963;28;20440;-72
2023/05/06 08:24:13;;;;;;;3.80;2.97;;;17.90;91.80;;;;;;5018468;28;20450;-71
2023/05/06 08:26:40;;;;;;;3.00;2.70;;;18.00;91.10;;;;;;5017482;28;20432;-72
2023/05/06 08:29:08;;;;;;;3.03;2.83;;;18.20;91.20;;;;;;5025829;28;20427;-70
2023/05/06 08:31:35;;;;;;;2.40;2.20;;;18.40;90.50;;;;;;5020082;28;20448;-73
2023/05/06 08:34:02;;;;;;;1.90;1.47;;;18.60;87.10;;;;;;5025667;28;20539;-73
2023/05/06 08:36:29;;;;;;;2.63;2.42;;;18.70;83.60;;;;;;5024667;28;20423;-74
2023/05/06 08:38:55;;;;;;;2.70;2.50;;;19.00;84.30;;;;;;5021606;28;20518;-72
2023/05/06 08:41:22;;;;;;;2.80;2.30;;;19.10;85.10;;;;;;5030140;28;20483;-74
2023/05/06 08:43:50;;;;;;;3.08;2.35;;;19.10;82.10;;;;;;5028997;28;20455;-69
2023/05/06 08:46:18;;;;;;;1.90;1.60;;;19.20;78.90;;;;;;5027785;28;20429;-69
2023/05/06 08:48:45;;;;;;;1.60;1.30;;;19.40;75.70;;;;;;5010917;28;20464;-69
2023/05/06 08:51:14;;;;;;;2.45;2.25;;;19.60;73.80;;;;;;5020484;28;20458;-69
2023/05/06 08:53:46;;;;;;;4.00;3.70;;;19.80;74.60;;;;;;5023435;28;20462;-68
2023/05/06 08:56:15;;;;;;;3.13;2.93;;;19.90;77.00;;;;;;5013541;28;20793;-69
2023/05/06 08:58:45;;;;;;;3.00;2.80;;;20.00;76.00;;;;;;5018892;28;20437;-69
2023/05/06 09:01:12;;;;;;;2.88;2.38;;;20.20;75.10;;;;;;5012496;28;20591;-69
2023/05/06 09:03:40;;;;;;;2.50;2.30;;;20.30;74.00;;;;;;5023142;28;20439;-69
2023/05/06 09:06:06;;;;;;;2.60;2.30;;;20.50;71.10;;;;;;5011203;28;20767;-69
2023/05/06 09:08:33;;;;;;;2.50;2.30;;;20.50;71.10;;;;;;5025202;28;20449;-65
2023/05/06 09:11:00;;;;;;;2.92;2.70;;;20.60;70.70;;;;;;5022454;28;20890;-68
2023/05/06 09:13:27;;;;;;;2.50;2.30;;;20.50;69.10;;;;;;5019061;28;20443;-70
2023/05/06 09:15:54;;;;;;;2.55;2.35;;;20.60;69.90;;;;;;5022556;28;21641;-75
2023/05/06 09:18:22;;;;;;;2.70;2.50;;;20.60;69.50;;;;;;5023147;28;20924;-72
2023/05/06 09:20:50;;;;;;;2.72;2.50;;;20.90;70.20;;;;;;5028425;28;20422;-71
2023/05/06 09:23:18;;;;;;;2.50;2.30;;;21.10;68.40;;;;;;5025204;28;20441;-71
2023/05/06 09:25:48;;;;;;;2.92;2.40;;;21.30;67.30;;;;;;5019928;28;20427;-72
2023/05/06 09:28:15;;;;;;;2.60;2.40;;;21.30;66.70;;;;;;5020368;28;20781;-72
2023/05/06 09:30:44;;;;;;;2.60;2.40;;;21.40;67.40;;;;;;5018267;28;20498;-72
2023/05/06 09:33:11;;;;;;;2.40;2.20;;;21.40;67.10;;;;;;5022826;28;20844;-72
2023/05/06 09:35:40;;;;;;;2.10;1.90;;;21.60;65.00;;;;;;5012485;28;20439;-72
2023/05/06 09:38:09;;;;;;;4.00;2.10;;;21.80;64.10;;;;;;5021467;28;20470;-71
2023/05/06 09:40:36;;;;;;;2.13;1.92;;;22.00;62.90;;;;;;5020094;28;20518;-72
2023/05/06 09:43:04;;;;;;;2.00;1.80;;;22.10;60.30;;;;;;5022084;28;21109;-72
2023/05/06 09:45:32;;;;;;;2.40;2.20;;;22.20;60.70;;;;;;5019081;28;20471;-72
2023/05/06 09:47:59;;;;;;;1.80;1.70;;;22.20;59.40;;;;;;5017407;28;20435;-72
2023/05/06 09:50:26;;;;;;;3.60;3.15;;;22.20;58.30;;;;;;5012905;28;20457;-74
2023/05/06 09:52:54;;;;;;;4.10;3.80;;;22.20;60.60;;;;;;5018856;28;20438;-73
2023/05/06 09:55:25;;;;;;;4.85;4.40;;;22.40;58.00;;;;;;5022784;28;20434;-73
2023/05/06 09:57:52;;;;;;;2.85;1.90;;;22.60;57.20;;;;;;5022676;28;20943;-73
2023/05/06 10:00:25;;;;;;;1.60;1.40;;;22.80;53.90;;;;;;5021455;28;20419;-73
2023/05/06 10:02:52;;;;;;;2.30;1.40;;;22.90;54.00;;;;;;5021461;28;20440;-73
2023/05/06 10:05:20;;;;;;;1.70;1.50;;;23.10;54.20;;;;;;5018896;28;20941;-72
2023/05/06 10:07:49;;;;;;;1.42;1.10;;;23.20;52.80;;;;;;5019343;28;20527;-71
2023/05/06 10:10:16;;;;;;;2.05;1.30;;;23.30;52.50;;;;;;5022448;28;21023;-73
2023/05/06 10:12:45;;;;;;;2.35;1.30;;;23.40;51.10;;;;;;5019919;28;20445;-72
2023/05/06 10:15:12;;;;;;;1.55;1.20;;;23.50;50.70;;;;;;5025139;28;20600;-73
2023/05/06 10:17:41;;;;;;;1.73;1.02;;;23.70;50.10;;;;;;5019867;28;20460;-73
2023/05/06 10:20:11;;;;;;;1.10;0.90;;;23.80;49.60;;;;;;5017674;28;20514;-72
2023/05/06 10:22:48;;;;;;;2.00;1.10;;;23.80;50.40;;;;;;5025125;28;20413;-73
2023/05/06 10:25:23;;;;;;;1.30;1.00;;;23.90;47.80;;;;;;5013500;28;20442;-73
2023/05/06 10:27:52;;;;;;;2.15;1.25;;;23.80;48.30;;;;;;5026116;28;20428;-73
2023/05/06 10:30:19;;;;;;;1.37;1.00;;;23.70;48.40;;;;;;5026442;28;20476;-73
2023/05/06 10:32:46;;;;;;;1.60;1.20;;;23.90;48.70;;;;;;5033357;28;20431;-73
2023/05/06 10:35:22;;;;;;;1.70;1.50;;;24.10;48.40;;;;;;5023053;28;20435;-74
2023/05/06 10:37:51;;;;;;;2.00;1.38;;;24.20;48.50;;;;;;5023033;28;20443;-75
2023/05/06 10:40:19;;;;;;;1.40;1.13;;;24.20;47.30;;;;;;5027518;28;20431;-75
2023/05/06 10:42:46;;;;;;;1.60;1.00;;;24.20;47.20;;;;;;5024097;28;20434;-73
2023/05/06 10:45:15;;;;;;;2.17;1.20;;;24.20;47.20;;;;;;5030120;28;20438;-75
2023/05/06 10:48:08;;;;;;;1.65;0.93;;;24.20;46.90;;;;;;5024330;28;20430;-76
2023/05/06 10:50:35;;;;;;;1.60;0.90;;;24.50;46.60;;;;;;5020295;28;20530;-72
2023/05/06 10:53:02;;;;;;;1.50;1.00;;;24.80;44.80;;;;;;5015523;28;20442;-71
2023/05/06 10:55:31;;;;;;;1.77;1.10;;;25.00;44.30;;;;;;5025103;28;20526;-71
2023/05/06 10:58:02;;;;;;;2.30;1.17;;;25.20;43.70;;;;;;5030834;28;20489;-72
2023/05/06 11:00:32;;;;;;;1.50;1.10;;;25.30;43.80;;;;;;5025012;28;20538;-73
2023/05/06 11:03:02;;;;;;;2.00;1.00;;;25.30;44.00;;;;;;5031152;28;20411;-73
2023/05/06 11:05:29;;;;;;;1.60;1.20;;;25.40;44.30;;;;;;5023148;28;20508;-73
2023/05/06 11:08:08;;;;;;;1.60;1.00;;;25.50;43.30;;;;;;5019070;28;20762;-72
2023/05/06 11:10:36;;;;;;;1.45;0.80;;;25.70;43.30;;;;;;5020607;28;20430;-71
2023/05/06 11:13:23;;;;;;;1.35;0.98;;;25.90;42.20;;;;;;5024049;28;20457;-73
2023/05/06 11:15:52;;;;;;;1.40;0.90;;;25.90;42.40;;;;;;5023649;28;20511;-72
2023/05/06 11:18:41;;;;;;;2.25;1.30;;;25.80;42.40;;;;;;5023029;28;20427;-71
2023/05/06 11:21:39;;;;;;;1.65;1.00;;;25.60;41.50;;;;;;5022219;28;20434;-71
2023/05/06 11:24:07;;;;;;;2.35;1.00;;;25.40;42.50;;;;;;5026263;28;20434;-71
2023/05/06 11:26:34;;;;;;;1.02;0.82;;;25.40;43.80;;;;;;5021673;28;20484;-73
2023/05/06 11:29:03;;;;;;;1.80;0.80;;;25.50;42.70;;;;;;5026973;28;20431;-73
2023/05/06 11:31:41;;;;;;;1.00;0.90;;;25.40;42.10;;;;;;5018881;28;20522;-71
2023/05/06 11:34:10;;;;;;;1.60;1.00;;;25.40;41.90;;;;;;5028569;28;20877;-73
2023/05/06 11:36:45;;;;;;;1.80;0.80;;;25.50;42.10;;;;;;5016954;28;20430;-72
2023/05/06 11:39:13;;;;;;;2.10;1.30;;;25.70;43.40;;;;;;5023138;28;20459;-72
2023/05/06 11:41:40;;;;;;;2.00;1.20;;;25.80;42.60;;;;;;5025472;28;20944;-71
2023/05/06 11:44:08;;;;;;;2.17;1.23;;;26.00;42.00;;;;;;5018629;28;20439;-72
2023/05/06 11:46:36;;;;;;;1.67;1.00;;;26.10;41.20;;;;;;5018411;28;20433;-73
2023/05/06 11:49:03;;;;;;;1.80;1.20;;;26.10;40.70;;;;;;5021522;28;20442;-73
2023/05/06 11:51:30;;;;;;;1.80;1.00;;;26.10;40.60;;;;;;5017903;28;20522;-73
2023/05/06 11:54:08;;;;;;;1.60;0.90;;;26.00;41.00;;;;;;5023273;28;20434;-73
2023/05/06 11:56:49;;;;;;;1.85;0.95;;;25.80;39.90;;;;;;5027920;28;20934;-72
2023/05/06 11:59:17;;;;;;;1.42;1.00;;;25.60;41.20;;;;;;5022476;28;20746;-73
2023/05/06 12:01:46;;;;;;;1.17;0.90;;;25.90;40.50;;;;;;5018048;28;20439;-73
2023/05/06 12:04:13;;;;;;;2.42;0.90;;;26.00;40.60;;;;;;5021309;28;20431;-72
2023/05/06 12:06:40;;;;;;;2.10;0.80;;;26.20;40.00;;;;;;5020434;28;20456;-73
2023/05/06 12:09:10;;;;;;;1.40;0.80;;;26.30;39.40;;;;;;5020165;28;20474;-72
2023/05/06 12:11:37;;;;;;;3.00;0.95;;;26.00;39.90;;;;;;5025777;28;20427;-72
2023/05/06 12:14:06;;;;;;;1.30;0.90;;;25.90;40.70;;;;;;5022256;28;20435;-71
2023/05/06 12:16:34;;;;;;;2.03;1.10;;;25.70;39.20;;;;;;5028268;28;20460;-71
2023/05/06 12:19:02;;;;;;;1.73;1.17;;;25.70;39.90;;;;;;5020844;28;20540;-71
2023/05/06 12:21:29;;;;;;;1.63;0.90;;;26.00;39.60;;;;;;5018587;28;20434;-71
2023/05/06 12:23:59;;;;;;;2.05;1.10;;;26.30;39.20;;;;;;5021751;28;20632;-73
2023/05/06 12:26:27;;;;;;;1.50;0.70;;;26.70;37.80;;;;;;5018556;28;20442;-72
2023/05/06 12:29:07;;;;;;;1.30;0.70;;;26.80;37.50;;;;;;5020219;28;20925;-73
2023/05/06 12:31:35;;;;;;;1.00;0.80;;;26.80;35.70;;;;;;5020209;28;20431;-73
2023/05/06 12:34:03;;;;;;;1.05;0.70;;;26.50;37.30;;;;;;5036503;28;20424;-73
2023/05/06 12:36:31;;;;;;;1.30;1.00;;;26.50;39.10;;;;;;5020412;28;20451;-73
2023/05/06 12:38:59;;;;;;;1.00;0.60;;;26.60;38.50;;;;;;5029142;28;20826;-73
2023/05/06 12:41:36;;;;;;;1.70;0.60;;;26.70;38.20;;;;;;5022015;28;20481;-73